sensor_id;sensor_type;location;lat;lon;timestamp;P1;durP1;ratioP1;P2;durP2;ratioP2
15354;SDS011;7777;52.254;9.618;2023-05-07T00:00:39;28.63;;;22.33;;
15354;SDS011;7777;52.254;9.618;2023-05-07T00:03:07;28.67;;;23.30;;
15354;SDS011;7777;52.254;9.618;2023-05-07T00:05:33;30.33;;;23.60;;
15354;SDS011;7777;52.254;9.618;2023-05-07T00:07:59;31.00;;;25.33;;
15354;SDS011;7777;52.254;9.618;2023-05-07T00:10:25;30.87;;;24.73;;
15354;SDS011;7777;52.254;9.618;2023-05-07T00:12:51;28.00;;;24.23;;
15354;SDS011;7777;52.254;9.618;2023-05-07T00:15:16;33.37;;;24.80;;
15354;SDS011;7777;52.254;9.618;2023-05-07T00:17:42;34.93;;;24.97;;
15354;SDS011;7777;52.254;9.618;2023-05-07T00:20:08;30.73;;;24.47;;
15354;SDS011;7777;52.254;9.618;2023-05-07T00:22:34;30.03;;;23.47;;
15354;SDS011;7777;52.254;9.618;2023-05-07T00:25:00;32.43;;;24.47;;
15354;SDS011;7777;52.254;9.618;2023-05-07T00:27:25;31.63;;;25.10;;
15354;SDS011;7777;52.254;9.618;2023-05-07T00:29:51;30.63;;;23.83;;
15354;SDS011;7777;52.254;9.618;2023-05-07T00:32:17;30.47;;;24.30;;
15354;SDS011;7777;52.254;9.618;2023-05-07T00:34:43;27.27;;;23.20;;
15354;SDS011;7777;52.254;9.618;2023-05-07T00:37:09;28.93;;;23.40;;
15354;SDS011;7777;52.254;9.618;2023-05-07T00:39:35;30.07;;;23.10;;
15354;SDS011;7777;52.254;9.618;2023-05-07T00:42:00;32.13;;;25.50;;
15354;SDS011;7777;52.254;9.618;2023-05-07T00:44:27;31.53;;;23.57;;
15354;SDS011;7777;52.254;9.618;2023-05-07T00:46:54;31.53;;;23.73;;
15354;SDS011;7777;52.254;9.618;2023-05-07T00:49:23;28.50;;;22.63;;
15354;SDS011;7777;52.254;9.618;2023-05-07T00:52:01;35.30;;;25.43;;
15354;SDS011;7777;52.254;9.618;2023-05-07T00:54:27;33.40;;;25.03;;
15354;SDS011;7777;52.254;9.618;2023-05-07T00:56:53;32.80;;;24.80;;
15354;SDS011;7777;52.254;9.618;2023-05-07T00:59:20;32.80;;;24.57;;
15354;SDS011;7777;52.254;9.618;2023-05-07T01:01:45;37.00;;;25.97;;
15354;SDS011;7777;52.254;9.618;2023-05-07T01:04:11;36.07;;;24.70;;
15354;SDS011;7777;52.254;9.618;2023-05-07T01:06:37;32.57;;;23.77;;
15354;SDS011;7777;52.254;9.618;2023-05-07T01:09:03;35.37;;;24.10;;
15354;SDS011;7777;52.254;9.618;2023-05-07T01:11:30;32.23;;;23.63;;
15354;SDS011;7777;52.254;9.618;2023-05-07T01:14:17;38.07;;;25.23;;
15354;SDS011;7777;52.254;9.618;2023-05-07T01:16:43;32.73;;;22.73;;
15354;SDS011;7777;52.254;9.618;2023-05-07T01:19:09;31.53;;;24.20;;
15354;SDS011;7777;52.254;9.618;2023-05-07T01:21:39;32.70;;;23.40;;
15354;SDS011;7777;52.254;9.618;2023-05-07T01:24:13;30.73;;;23.00;;
15354;SDS011;7777;52.254;9.618;2023-05-07T01:26:39;32.37;;;23.77;;
15354;SDS011;7777;52.254;9.618;2023-05-07T01:29:07;37.10;;;27.23;;
15354;SDS011;7777;52.254;9.618;2023-05-07T01:31:33;38.07;;;27.07;;
15354;SDS011;7777;52.254;9.618;2023-05-07T01:34:00;36.07;;;26.90;;
15354;SDS011;7777;52.254;9.618;2023-05-07T01:36:29;37.97;;;26.70;;
15354;SDS011;7777;52.254;9.618;2023-05-07T01:38:55;37.67;;;26.93;;
15354;SDS011;7777;52.254;9.618;2023-05-07T01:41:23;37.37;;;26.40;;
15354;SDS011;7777;52.254;9.618;2023-05-07T01:43:49;44.03;;;27.93;;
15354;SDS011;7777;52.254;9.618;2023-05-07T01:46:17;39.33;;;26.03;;
15354;SDS011;7777;52.254;9.618;2023-05-07T01:48:47;38.50;;;26.93;;
15354;SDS011;7777;52.254;9.618;2023-05-07T01:51:16;39.47;;;26.00;;
15354;SDS011;7777;52.254;9.618;2023-05-07T01:53:41;38.70;;;27.07;;
15354;SDS011;7777;52.254;9.618;2023-05-07T01:56:12;42.30;;;27.40;;
15354;SDS011;7777;52.254;9.618;2023-05-07T01:58:38;39.83;;;27.37;;
15354;SDS011;7777;52.254;9.618;2023-05-07T02:01:06;41.40;;;27.70;;
15354;SDS011;7777;52.254;9.618;2023-05-07T02:03:32;37.63;;;26.10;;
15354;SDS011;7777;52.254;9.618;2023-05-07T02:05:58;41.20;;;27.57;;
15354;SDS011;7777;52.254;9.618;2023-05-07T02:08:23;39.40;;;26.37;;
15354;SDS011;7777;52.254;9.618;2023-05-07T02:10:49;38.10;;;25.60;;
15354;SDS011;7777;52.254;9.618;2023-05-07T02:13:16;34.60;;;25.60;;
15354;SDS011;7777;52.254;9.618;2023-05-07T02:15:42;36.40;;;24.53;;
15354;SDS011;7777;52.254;9.618;2023-05-07T02:18:09;31.90;;;23.30;;
15354;SDS011;7777;52.254;9.618;2023-05-07T02:20:35;32.47;;;23.27;;
15354;SDS011;7777;52.254;9.618;2023-05-07T02:23:01;31.17;;;22.00;;
15354;SDS011;7777;52.254;9.618;2023-05-07T02:25:26;37.97;;;23.73;;
15354;SDS011;7777;52.254;9.618;2023-05-07T02:27:52;34.37;;;22.70;;
15354;SDS011;7777;52.254;9.618;2023-05-07T02:30:18;33.40;;;23.07;;
15354;SDS011;7777;52.254;9.618;2023-05-07T02:32:46;31.73;;;20.97;;
15354;SDS011;7777;52.254;9.618;2023-05-07T02:35:11;28.73;;;20.67;;
15354;SDS011;7777;52.254;9.618;2023-05-07T02:37:37;29.20;;;20.77;;
15354;SDS011;7777;52.254;9.618;2023-05-07T02:40:03;28.27;;;20.30;;
15354;SDS011;7777;52.254;9.618;2023-05-07T02:42:32;30.23;;;20.13;;
15354;SDS011;7777;52.254;9.618;2023-05-07T02:45:01;25.73;;;18.93;;
15354;SDS011;7777;52.254;9.618;2023-05-07T02:47:27;28.60;;;19.33;;
15354;SDS011;7777;52.254;9.618;2023-05-07T02:49:54;27.60;;;17.83;;
15354;SDS011;7777;52.254;9.618;2023-05-07T02:52:20;27.27;;;18.60;;
15354;SDS011;7777;52.254;9.618;2023-05-07T02:54:48;24.10;;;17.80;;
15354;SDS011;7777;52.254;9.618;2023-05-07T02:57:14;26.57;;;19.50;;
15354;SDS011;7777;52.254;9.618;2023-05-07T02:59:40;25.03;;;18.50;;
15354;SDS011;7777;52.254;9.618;2023-05-07T03:02:09;25.07;;;17.90;;
15354;SDS011;7777;52.254;9.618;2023-05-07T03:04:35;21.83;;;16.70;;
15354;SDS011;7777;52.254;9.618;2023-05-07T03:07:01;23.03;;;17.53;;
15354;SDS011;7777;52.254;9.618;2023-05-07T03:09:26;22.13;;;17.33;;
15354;SDS011;7777;52.254;9.618;2023-05-07T03:11:56;24.33;;;17.17;;
15354;SDS011;7777;52.254;9.618;2023-05-07T03:14:22;23.50;;;17.57;;
15354;SDS011;7777;52.254;9.618;2023-05-07T03:16:48;21.93;;;17.03;;
15354;SDS011;7777;52.254;9.618;2023-05-07T03:19:14;24.53;;;16.77;;
15354;SDS011;7777;52.254;9.618;2023-05-07T03:21:40;25.90;;;17.87;;
15354;SDS011;7777;52.254;9.618;2023-05-07T03:24:06;24.23;;;16.50;;
15354;SDS011;7777;52.254;9.618;2023-05-07T03:26:32;19.27;;;15.97;;
15354;SDS011;7777;52.254;9.618;2023-05-07T03:28:58;22.67;;;17.97;;
15354;SDS011;7777;52.254;9.618;2023-05-07T03:31:24;24.57;;;19.47;;
15354;SDS011;7777;52.254;9.618;2023-05-07T03:33:53;23.57;;;18.87;;
15354;SDS011;7777;52.254;9.618;2023-05-07T03:36:21;23.37;;;19.17;;
15354;SDS011;7777;52.254;9.618;2023-05-07T03:38:48;26.03;;;19.73;;
15354;SDS011;7777;52.254;9.618;2023-05-07T03:41:14;27.20;;;19.93;;
15354;SDS011;7777;52.254;9.618;2023-05-07T03:43:40;27.60;;;19.37;;
15354;SDS011;7777;52.254;9.618;2023-05-07T03:46:06;24.47;;;19.73;;
15354;SDS011;7777;52.254;9.618;2023-05-07T03:48:32;28.27;;;21.00;;
15354;SDS011;7777;52.254;9.618;2023-05-07T03:50:58;29.13;;;22.27;;
15354;SDS011;7777;52.254;9.618;2023-05-07T03:53:24;26.33;;;21.57;;
15354;SDS011;7777;52.254;9.618;2023-05-07T03:55:50;29.37;;;21.67;;
15354;SDS011;7777;52.254;9.618;2023-05-07T03:58:16;28.07;;;22.47;;
15354;SDS011;7777;52.254;9.618;2023-05-07T04:00:42;24.13;;;19.60;;
15354;SDS011;7777;52.254;9.618;2023-05-07T04:03:08;27.73;;;21.77;;
15354;SDS011;7777;52.254;9.618;2023-05-07T04:05:34;25.13;;;19.37;;
15354;SDS011;7777;52.254;9.618;2023-05-07T04:08:00;26.70;;;20.20;;
15354;SDS011;7777;52.254;9.618;2023-05-07T04:10:26;24.27;;;19.47;;
15354;SDS011;7777;52.254;9.618;2023-05-07T04:12:53;26.63;;;18.80;;
15354;SDS011;7777;52.254;9.618;2023-05-07T04:15:19;25.13;;;19.70;;
15354;SDS011;7777;52.254;9.618;2023-05-07T04:17:45;23.77;;;18.87;;
15354;SDS011;7777;52.254;9.618;2023-05-07T04:20:13;26.87;;;19.63;;
15354;SDS011;7777;52.254;9.618;2023-05-07T04:22:43;24.73;;;19.67;;
15354;SDS011;7777;52.254;9.618;2023-05-07T04:25:09;24.57;;;18.83;;
15354;SDS011;7777;52.254;9.618;2023-05-07T04:27:35;25.80;;;20.50;;
15354;SDS011;7777;52.254;9.618;2023-05-07T04:30:02;25.50;;;19.47;;
15354;SDS011;7777;52.254;9.618;2023-05-07T04:32:29;24.67;;;20.33;;
15354;SDS011;7777;52.254;9.618;2023-05-07T04:34:55;23.83;;;18.47;;
15354;SDS011;7777;52.254;9.618;2023-05-07T04:37:24;20.97;;;18.20;;
15354;SDS011;7777;52.254;9.618;2023-05-07T04:39:51;24.87;;;18.70;;
15354;SDS011;7777;52.254;9.618;2023-05-07T04:42:17;22.03;;;17.40;;
15354;SDS011;7777;52.254;9.618;2023-05-07T04:44:43;24.07;;;18.73;;
15354;SDS011;7777;52.254;9.618;2023-05-07T04:47:10;24.90;;;19.63;;
15354;SDS011;7777;52.254;9.618;2023-05-07T04:49:37;27.27;;;18.47;;
15354;SDS011;7777;52.254;9.618;2023-05-07T04:52:09;21.97;;;16.20;;
15354;SDS011;7777;52.254;9.618;2023-05-07T04:54:50;24.07;;;17.17;;
15354;SDS011;7777;52.254;9.618;2023-05-07T04:57:16;22.00;;;17.13;;
15354;SDS011;7777;52.254;9.618;2023-05-07T04:59:43;20.07;;;16.87;;
15354;SDS011;7777;52.254;9.618;2023-05-07T05:02:16;21.17;;;16.63;;
15354;SDS011;7777;52.254;9.618;2023-05-07T05:04:43;21.27;;;17.03;;
15354;SDS011;7777;52.254;9.618;2023-05-07T05:07:09;20.17;;;15.63;;
15354;SDS011;7777;52.254;9.618;2023-05-07T05:09:44;20.87;;;15.30;;
15354;SDS011;7777;52.254;9.618;2023-05-07T05:12:10;19.07;;;14.73;;
15354;SDS011;7777;52.254;9.618;2023-05-07T05:14:36;18.73;;;14.90;;
15354;SDS011;7777;52.254;9.618;2023-05-07T05:17:02;23.37;;;16.80;;
15354;SDS011;7777;52.254;9.618;2023-05-07T05:19:28;19.93;;;15.73;;
15354;SDS011;7777;52.254;9.618;2023-05-07T05:21:53;19.97;;;15.43;;
15354;SDS011;7777;52.254;9.618;2023-05-07T05:24:20;19.43;;;14.83;;
15354;SDS011;7777;52.254;9.618;2023-05-07T05:26:48;18.17;;;14.30;;
15354;SDS011;7777;52.254;9.618;2023-05-07T05:29:14;19.90;;;14.80;;
15354;SDS011;7777;52.254;9.618;2023-05-07T05:31:40;17.80;;;14.43;;
15354;SDS011;7777;52.254;9.618;2023-05-07T05:34:09;21.03;;;14.90;;
15354;SDS011;7777;52.254;9.618;2023-05-07T05:36:35;21.70;;;15.00;;
15354;SDS011;7777;52.254;9.618;2023-05-07T05:39:03;19.97;;;14.77;;
15354;SDS011;7777;52.254;9.618;2023-05-07T05:41:29;18.00;;;13.33;;
15354;SDS011;7777;52.254;9.618;2023-05-07T05:43:55;19.00;;;14.70;;
15354;SDS011;7777;52.254;9.618;2023-05-07T05:46:21;19.27;;;13.90;;
15354;SDS011;7777;52.254;9.618;2023-05-07T05:48:47;17.80;;;13.57;;
15354;SDS011;7777;52.254;9.618;2023-05-07T05:51:17;16.77;;;14.07;;
15354;SDS011;7777;52.254;9.618;2023-05-07T05:54:04;18.00;;;13.80;;
15354;SDS011;7777;52.254;9.618;2023-05-07T05:56:31;16.63;;;12.23;;
15354;SDS011;7777;52.254;9.618;2023-05-07T05:58:57;16.50;;;13.07;;
15354;SDS011;7777;52.254;9.618;2023-05-07T06:01:28;14.97;;;11.80;;
15354;SDS011;7777;52.254;9.618;2023-05-07T06:03:59;17.43;;;11.50;;
15354;SDS011;7777;52.254;9.618;2023-05-07T06:06:28;15.47;;;12.33;;
15354;SDS011;7777;52.254;9.618;2023-05-07T06:08:53;17.13;;;11.30;;
15354;SDS011;7777;52.254;9.618;2023-05-07T06:11:19;15.50;;;11.40;;
15354;SDS011;7777;52.254;9.618;2023-05-07T06:13:45;15.33;;;11.53;;
15354;SDS011;7777;52.254;9.618;2023-05-07T06:16:11;15.73;;;10.67;;
15354;SDS011;7777;52.254;9.618;2023-05-07T06:18:37;13.23;;;10.07;;
15354;SDS011;7777;52.254;9.618;2023-05-07T06:21:03;11.00;;;9.60;;
15354;SDS011;7777;52.254;9.618;2023-05-07T06:23:29;16.17;;;11.00;;
15354;SDS011;7777;52.254;9.618;2023-05-07T06:26:00;13.43;;;10.40;;
15354;SDS011;7777;52.254;9.618;2023-05-07T06:28:34;16.57;;;9.80;;
15354;SDS011;7777;52.254;9.618;2023-05-07T06:31:17;13.27;;;10.03;;
15354;SDS011;7777;52.254;9.618;2023-05-07T06:33:46;14.07;;;10.67;;
15354;SDS011;7777;52.254;9.618;2023-05-07T06:36:24;12.17;;;9.63;;
15354;SDS011;7777;52.254;9.618;2023-05-07T06:38:49;10.77;;;9.03;;
15354;SDS011;7777;52.254;9.618;2023-05-07T06:41:15;10.67;;;8.93;;
15354;SDS011;7777;52.254;9.618;2023-05-07T06:43:44;12.50;;;10.30;;
15354;SDS011;7777;52.254;9.618;2023-05-07T06:46:12;12.17;;;9.37;;
15354;SDS011;7777;52.254;9.618;2023-05-07T06:48:38;10.80;;;9.13;;
15354;SDS011;7777;52.254;9.618;2023-05-07T06:51:10;11.47;;;9.23;;
15354;SDS011;7777;52.254;9.618;2023-05-07T06:53:36;11.00;;;9.13;;
15354;SDS011;7777;52.254;9.618;2023-05-07T06:56:02;12.43;;;9.57;;
15354;SDS011;7777;52.254;9.618;2023-05-07T06:58:29;11.30;;;8.90;;
15354;SDS011;7777;52.254;9.618;2023-05-07T07:01:02;9.77;;;8.77;;
15354;SDS011;7777;52.254;9.618;2023-05-07T07:03:32;11.83;;;8.60;;
15354;SDS011;7777;52.254;9.618;2023-05-07T07:05:57;10.93;;;8.30;;
15354;SDS011;7777;52.254;9.618;2023-05-07T07:08:26;11.03;;;8.80;;
15354;SDS011;7777;52.254;9.618;2023-05-07T07:11:00;10.23;;;8.67;;
15354;SDS011;7777;52.254;9.618;2023-05-07T07:13:40;8.70;;;7.47;;
15354;SDS011;7777;52.254;9.618;2023-05-07T07:16:13;10.13;;;7.40;;
15354;SDS011;7777;52.254;9.618;2023-05-07T07:18:42;10.13;;;7.43;;
15354;SDS011;7777;52.254;9.618;2023-05-07T07:21:15;10.30;;;8.03;;
15354;SDS011;7777;52.254;9.618;2023-05-07T07:23:44;10.17;;;7.10;;
15354;SDS011;7777;52.254;9.618;2023-05-07T07:26:11;9.37;;;7.20;;
15354;SDS011;7777;52.254;9.618;2023-05-07T07:28:45;9.43;;;7.60;;
15354;SDS011;7777;52.254;9.618;2023-05-07T07:31:14;9.33;;;7.90;;
15354;SDS011;7777;52.254;9.618;2023-05-07T07:33:56;8.73;;;7.20;;
15354;SDS011;7777;52.254;9.618;2023-05-07T07:36:22;8.60;;;6.93;;
15354;SDS011;7777;52.254;9.618;2023-05-07T07:38:49;13.90;;;8.10;;
15354;SDS011;7777;52.254;9.618;2023-05-07T07:41:19;11.53;;;7.73;;
15354;SDS011;7777;52.254;9.618;2023-05-07T07:43:45;8.70;;;7.27;;
15354;SDS011;7777;52.254;9.618;2023-05-07T07:46:14;8.73;;;6.90;;
15354;SDS011;7777;52.254;9.618;2023-05-07T07:48:54;10.37;;;8.27;;
15354;SDS011;7777;52.254;9.618;2023-05-07T07:51:27;9.53;;;7.70;;
15354;SDS011;7777;52.254;9.618;2023-05-07T07:53:53;10.00;;;7.20;;
15354;SDS011;7777;52.254;9.618;2023-05-07T07:56:23;9.17;;;7.17;;
15354;SDS011;7777;52.254;9.618;2023-05-07T07:58:54;8.70;;;6.90;;
15354;SDS011;7777;52.254;9.618;2023-05-07T08:01:20;8.90;;;7.13;;
15354;SDS011;7777;52.254;9.618;2023-05-07T08:03:58;9.70;;;7.53;;
15354;SDS011;7777;52.254;9.618;2023-05-07T08:06:29;9.27;;;8.13;;
15354;SDS011;7777;52.254;9.618;2023-05-07T08:09:04;9.70;;;7.73;;
15354;SDS011;7777;52.254;9.618;2023-05-07T08:11:38;12.67;;;8.10;;
15354;SDS011;7777;52.254;9.618;2023-05-07T08:14:24;9.57;;;7.50;;
15354;SDS011;7777;52.254;9.618;2023-05-07T08:17:28;11.33;;;7.57;;
15354;SDS011;7777;52.254;9.618;2023-05-07T08:20:39;9.07;;;6.63;;
15354;SDS011;7777;52.254;9.618;2023-05-07T08:23:23;8.97;;;7.47;;
15354;SDS011;7777;52.254;9.618;2023-05-07T08:25:55;8.73;;;7.37;;
15354;SDS011;7777;52.254;9.618;2023-05-07T08:28:39;9.20;;;7.60;;
15354;SDS011;7777;52.254;9.618;2023-05-07T08:31:50;11.30;;;7.90;;
15354;SDS011;7777;52.254;9.618;2023-05-07T08:38:23;10.17;;;7.73;;
15354;SDS011;7777;52.254;9.618;2023-05-07T08:40:56;12.77;;;8.90;;
15354;SDS011;7777;52.254;9.618;2023-05-07T08:43:33;10.83;;;9.37;;
15354;SDS011;7777;52.254;9.618;2023-05-07T08:46:12;10.73;;;9.63;;
15354;SDS011;7777;52.254;9.618;2023-05-07T08:48:51;11.83;;;9.20;;
15354;SDS011;7777;52.254;9.618;2023-05-07T08:51:20;12.20;;;10.73;;
15354;SDS011;7777;52.254;9.618;2023-05-07T08:53:49;12.80;;;10.67;;
15354;SDS011;7777;52.254;9.618;2023-05-07T08:56:28;11.67;;;10.07;;
15354;SDS011;7777;52.254;9.618;2023-05-07T08:59:02;10.70;;;9.60;;
15354;SDS011;7777;52.254;9.618;2023-05-07T09:04:11;12.83;;;10.70;;
15354;SDS011;7777;52.254;9.618;2023-05-07T09:07:37;13.30;;;10.27;;
15354;SDS011;7777;52.254;9.618;2023-05-07T09:10:52;13.90;;;10.47;;
15354;SDS011;7777;52.254;9.618;2023-05-07T09:13:23;11.50;;;10.20;;
15354;SDS011;7777;52.254;9.618;2023-05-07T09:15:49;11.10;;;9.27;;
15354;SDS011;7777;52.254;9.618;2023-05-07T09:18:41;10.57;;;9.47;;
15354;SDS011;7777;52.254;9.618;2023-05-07T09:21:15;10.80;;;9.70;;
15354;SDS011;7777;52.254;9.618;2023-05-07T09:23:50;16.77;;;10.50;;
15354;SDS011;7777;52.254;9.618;2023-05-07T09:26:52;12.77;;;10.00;;
15354;SDS011;7777;52.254;9.618;2023-05-07T09:29:27;10.63;;;9.37;;
15354;SDS011;7777;52.254;9.618;2023-05-07T09:31:56;11.33;;;9.30;;
15354;SDS011;7777;52.254;9.618;2023-05-07T09:34:25;11.30;;;9.30;;
15354;SDS011;7777;52.254;9.618;2023-05-07T09:36:55;11.30;;;9.60;;
15354;SDS011;7777;52.254;9.618;2023-05-07T09:42:16;11.70;;;9.20;;
15354;SDS011;7777;52.254;9.618;2023-05-07T09:44:52;10.97;;;9.83;;
15354;SDS011;7777;52.254;9.618;2023-05-07T09:47:19;12.17;;;8.90;;
15354;SDS011;7777;52.254;9.618;2023-05-07T09:49:54;14.47;;;8.77;;
15354;SDS011;7777;52.254;9.618;2023-05-07T09:52:27;10.60;;;9.37;;
15354;SDS011;7777;52.254;9.618;2023-05-07T09:54:58;13.73;;;9.30;;
15354;SDS011;7777;52.254;9.618;2023-05-07T09:57:34;11.30;;;9.60;;
15354;SDS011;7777;52.254;9.618;2023-05-07T10:00:04;13.33;;;9.73;;
15354;SDS011;7777;52.254;9.618;2023-05-07T10:02:34;11.90;;;9.23;;
15354;SDS011;7777;52.254;9.618;2023-05-07T10:09:00;11.17;;;9.47;;
15354;SDS011;7777;52.254;9.618;2023-05-07T10:11:37;12.50;;;9.83;;
15354;SDS011;7777;52.254;9.618;2023-05-07T10:14:08;10.70;;;9.47;;
15354;SDS011;7777;52.254;9.618;2023-05-07T10:16:38;11.23;;;9.90;;
15354;SDS011;7777;52.254;9.618;2023-05-07T10:19:10;11.60;;;10.40;;
15354;SDS011;7777;52.254;9.618;2023-05-07T10:21:58;14.77;;;10.93;;
15354;SDS011;7777;52.254;9.618;2023-05-07T10:24:34;12.70;;;11.40;;
15354;SDS011;7777;52.254;9.618;2023-05-07T10:27:02;12.97;;;11.17;;
15354;SDS011;7777;52.254;9.618;2023-05-07T10:29:48;12.50;;;10.57;;
15354;SDS011;7777;52.254;9.618;2023-05-07T10:32:30;14.93;;;12.00;;
15354;SDS011;7777;52.254;9.618;2023-05-07T10:35:00;12.90;;;11.60;;
15354;SDS011;7777;52.254;9.618;2023-05-07T10:37:34;13.97;;;11.80;;
15354;SDS011;7777;52.254;9.618;2023-05-07T10:40:00;14.37;;;12.63;;
15354;SDS011;7777;52.254;9.618;2023-05-07T10:42:35;15.07;;;11.90;;
15354;SDS011;7777;52.254;9.618;2023-05-07T10:45:14;13.20;;;11.47;;
15354;SDS011;7777;52.254;9.618;2023-05-07T10:50:52;13.17;;;11.77;;
15354;SDS011;7777;52.254;9.618;2023-05-07T10:53:48;12.83;;;11.40;;
15354;SDS011;7777;52.254;9.618;2023-05-07T10:56:36;15.70;;;12.27;;
15354;SDS011;7777;52.254;9.618;2023-05-07T11:02:14;12.13;;;10.83;;
15354;SDS011;7777;52.254;9.618;2023-05-07T11:08:34;12.70;;;10.27;;
15354;SDS011;7777;52.254;9.618;2023-05-07T11:36:34;10.70;;;9.27;;
15354;SDS011;7777;52.254;9.618;2023-05-07T11:39:22;10.73;;;9.60;;
15354;SDS011;7777;52.254;9.618;2023-05-07T11:41:53;11.17;;;9.97;;
15354;SDS011;7777;52.254;9.618;2023-05-07T11:44:22;12.27;;;10.57;;
15354;SDS011;7777;52.254;9.618;2023-05-07T11:49:32;11.47;;;9.33;;
15354;SDS011;7777;52.254;9.618;2023-05-07T11:51:59;10.30;;;9.20;;
15354;SDS011;7777;52.254;9.618;2023-05-07T11:54:37;10.20;;;9.10;;
15354;SDS011;7777;52.254;9.618;2023-05-07T11:57:03;9.97;;;8.67;;
15354;SDS011;7777;52.254;9.618;2023-05-07T12:02:51;10.37;;;8.07;;
15354;SDS011;7777;52.254;9.618;2023-05-07T12:05:39;9.30;;;8.23;;
15354;SDS011;7777;52.254;9.618;2023-05-07T12:11:10;10.60;;;8.13;;
15354;SDS011;7777;52.254;9.618;2023-05-07T12:13:53;11.67;;;8.13;;
15354;SDS011;7777;52.254;9.618;2023-05-07T12:16:25;9.73;;;8.70;;
15354;SDS011;7777;52.254;9.618;2023-05-07T12:19:13;9.57;;;8.57;;
15354;SDS011;7777;52.254;9.618;2023-05-07T12:21:42;11.77;;;8.63;;
15354;SDS011;7777;52.254;9.618;2023-05-07T12:24:11;10.07;;;9.07;;
15354;SDS011;7777;52.254;9.618;2023-05-07T12:26:40;9.07;;;8.17;;
15354;SDS011;7777;52.254;9.618;2023-05-07T12:29:07;12.43;;;8.63;;
15354;SDS011;7777;52.254;9.618;2023-05-07T12:31:33;9.00;;;8.10;;
15354;SDS011;7777;52.254;9.618;2023-05-07T12:34:01;9.67;;;8.33;;
15354;SDS011;7777;52.254;9.618;2023-05-07T12:36:39;10.03;;;8.57;;
15354;SDS011;7777;52.254;9.618;2023-05-07T12:39:06;8.00;;;7.20;;
15354;SDS011;7777;52.254;9.618;2023-05-07T12:47:38;9.20;;;8.27;;
15354;SDS011;7777;52.254;9.618;2023-05-07T12:50:09;7.40;;;6.40;;
15354;SDS011;7777;52.254;9.618;2023-05-07T12:52:42;7.97;;;7.17;;
15354;SDS011;7777;52.254;9.618;2023-05-07T12:58:20;8.33;;;6.60;;
15354;SDS011;7777;52.254;9.618;2023-05-07T13:00:52;11.63;;;6.90;;
15354;SDS011;7777;52.254;9.618;2023-05-07T13:05:57;7.77;;;6.60;;
15354;SDS011;7777;52.254;9.618;2023-05-07T13:08:35;7.83;;;7.03;;
15354;SDS011;7777;52.254;9.618;2023-05-07T13:11:06;7.37;;;6.63;;
15354;SDS011;7777;52.254;9.618;2023-05-07T13:13:37;6.87;;;6.17;;
15354;SDS011;7777;52.254;9.618;2023-05-07T13:16:05;8.27;;;6.13;;
15354;SDS011;7777;52.254;9.618;2023-05-07T13:18:37;7.87;;;6.90;;
15354;SDS011;7777;52.254;9.618;2023-05-07T13:21:05;7.30;;;6.57;;
15354;SDS011;7777;52.254;9.618;2023-05-07T13:23:31;10.27;;;6.97;;
15354;SDS011;7777;52.254;9.618;2023-05-07T13:25:57;7.77;;;6.43;;
15354;SDS011;7777;52.254;9.618;2023-05-07T13:28:23;10.50;;;7.67;;
15354;SDS011;7777;52.254;9.618;2023-05-07T13:30:50;9.20;;;8.03;;
15354;SDS011;7777;52.254;9.618;2023-05-07T13:33:19;10.83;;;8.50;;
15354;SDS011;7777;52.254;9.618;2023-05-07T13:35:45;10.97;;;8.50;;
15354;SDS011;7777;52.254;9.618;2023-05-07T13:38:11;9.50;;;8.07;;
15354;SDS011;7777;52.254;9.618;2023-05-07T13:40:43;10.77;;;9.60;;
15354;SDS011;7777;52.254;9.618;2023-05-07T13:43:09;10.50;;;8.93;;
15354;SDS011;7777;52.254;9.618;2023-05-07T13:45:35;14.10;;;9.43;;
15354;SDS011;7777;52.254;9.618;2023-05-07T13:48:04;11.93;;;9.53;;
15354;SDS011;7777;52.254;9.618;2023-05-07T13:50:33;10.07;;;9.07;;
15354;SDS011;7777;52.254;9.618;2023-05-07T13:53:00;11.17;;;10.07;;
15354;SDS011;7777;52.254;9.618;2023-05-07T13:55:28;11.23;;;9.37;;
15354;SDS011;7777;52.254;9.618;2023-05-07T13:57:55;10.77;;;9.53;;
15354;SDS011;7777;52.254;9.618;2023-05-07T14:00:23;10.53;;;9.07;;
15354;SDS011;7777;52.254;9.618;2023-05-07T14:02:51;9.20;;;8.23;;
15354;SDS011;7777;52.254;9.618;2023-05-07T14:05:25;11.23;;;9.67;;
15354;SDS011;7777;52.254;9.618;2023-05-07T14:07:53;9.20;;;8.30;;
15354;SDS011;7777;52.254;9.618;2023-05-07T14:10:20;8.93;;;8.03;;
15354;SDS011;7777;52.254;9.618;2023-05-07T14:12:46;8.17;;;7.37;;
15354;SDS011;7777;52.254;9.618;2023-05-07T14:15:12;11.40;;;8.43;;
15354;SDS011;7777;52.254;9.618;2023-05-07T14:17:38;10.03;;;8.03;;
15354;SDS011;7777;52.254;9.618;2023-05-07T14:20:05;9.73;;;8.60;;
15354;SDS011;7777;52.254;9.618;2023-05-07T14:22:31;11.20;;;8.23;;
15354;SDS011;7777;52.254;9.618;2023-05-07T14:24:57;9.13;;;8.23;;
15354;SDS011;7777;52.254;9.618;2023-05-07T14:27:23;8.63;;;7.83;;
15354;SDS011;7777;52.254;9.618;2023-05-07T14:29:49;9.77;;;8.77;;
15354;SDS011;7777;52.254;9.618;2023-05-07T14:32:16;8.40;;;7.60;;
15354;SDS011;7777;52.254;9.618;2023-05-07T14:34:45;10.67;;;8.20;;
15354;SDS011;7777;52.254;9.618;2023-05-07T14:37:12;9.90;;;8.53;;
15354;SDS011;7777;52.254;9.618;2023-05-07T14:39:38;8.90;;;7.43;;
15354;SDS011;7777;52.254;9.618;2023-05-07T14:42:07;9.37;;;8.40;;
15354;SDS011;7777;52.254;9.618;2023-05-07T14:44:34;8.80;;;7.50;;
15354;SDS011;7777;52.254;9.618;2023-05-07T14:47:00;8.83;;;7.40;;
15354;SDS011;7777;52.254;9.618;2023-05-07T14:49:26;9.63;;;8.63;;
15354;SDS011;7777;52.254;9.618;2023-05-07T14:51:56;8.17;;;7.37;;
15354;SDS011;7777;52.254;9.618;2023-05-07T14:54:27;10.73;;;6.73;;
15354;SDS011;7777;52.254;9.618;2023-05-07T14:57:13;8.87;;;7.20;;
15354;SDS011;7777;52.254;9.618;2023-05-07T14:59:49;11.13;;;7.00;;
15354;SDS011;7777;52.254;9.618;2023-05-07T15:02:17;10.20;;;8.17;;
15354;SDS011;7777;52.254;9.618;2023-05-07T15:04:43;8.30;;;7.10;;
15354;SDS011;7777;52.254;9.618;2023-05-07T15:07:18;9.83;;;8.17;;
15354;SDS011;7777;52.254;9.618;2023-05-07T15:09:44;8.37;;;7.40;;
15354;SDS011;7777;52.254;9.618;2023-05-07T15:12:10;9.40;;;7.93;;
15354;SDS011;7777;52.254;9.618;2023-05-07T15:14:43;11.03;;;8.57;;
15354;SDS011;7777;52.254;9.618;2023-05-07T15:17:19;10.37;;;8.03;;
15354;SDS011;7777;52.254;9.618;2023-05-07T15:19:45;10.23;;;7.43;;
15354;SDS011;7777;52.254;9.618;2023-05-07T15:22:10;11.73;;;8.73;;
15354;SDS011;7777;52.254;9.618;2023-05-07T15:24:42;11.60;;;8.20;;
15354;SDS011;7777;52.254;9.618;2023-05-07T15:27:08;10.47;;;9.43;;
15354;SDS011;7777;52.254;9.618;2023-05-07T15:29:35;11.23;;;8.73;;
15354;SDS011;7777;52.254;9.618;2023-05-07T15:32:01;10.37;;;9.33;;
15354;SDS011;7777;52.254;9.618;2023-05-07T15:34:26;17.10;;;9.50;;
15354;SDS011;7777;52.254;9.618;2023-05-07T15:36:58;12.23;;;10.07;;
15354;SDS011;7777;52.254;9.618;2023-05-07T15:39:26;11.50;;;9.73;;
15354;SDS011;7777;52.254;9.618;2023-05-07T15:41:55;10.63;;;9.53;;
15354;SDS011;7777;52.254;9.618;2023-05-07T15:44:21;13.10;;;8.80;;
15354;SDS011;7777;52.254;9.618;2023-05-07T15:47:04;22.57;;;10.07;;
15354;SDS011;7777;52.254;9.618;2023-05-07T15:49:30;9.03;;;8.13;;
15354;SDS011;7777;52.254;9.618;2023-05-07T15:51:57;14.80;;;10.40;;
15354;SDS011;7777;52.254;9.618;2023-05-07T15:54:23;10.43;;;8.70;;
15354;SDS011;7777;52.254;9.618;2023-05-07T15:56:49;11.27;;;8.60;;
15354;SDS011;7777;52.254;9.618;2023-05-07T15:59:17;9.83;;;8.63;;
15354;SDS011;7777;52.254;9.618;2023-05-07T16:04:55;10.63;;;8.50;;
15354;SDS011;7777;52.254;9.618;2023-05-07T16:07:38;9.87;;;8.53;;
15354;SDS011;7777;52.254;9.618;2023-05-07T16:10:11;10.00;;;8.90;;
15354;SDS011;7777;52.254;9.618;2023-05-07T16:12:40;13.27;;;9.53;;